Cadnam, United Kingdom
Current Conditions -  °F | °C
As of 3:20 PM on Monday 22 Dec 2014 (Local Time) from EGHI Reporting Station
Broken Clouds Broken Clouds  
Wind Chill: 54°   Ceiling: 2600
Heat Index: 54°   Visibility: 6mi
Dew Point: 46°   Wind: 16mph
Humidity: 77%   Direction: 250°WSW
Pressure: 30.09"   Gusts: NA
Location:  50.92°N, 1.58°W
Report Text: EGHI 221520Z 25014KT 230V290 9000 SCT020 BKN026 12/08 Q1019
Loading
Personal Weather Stations






























Interactive Weather Map New forecast layout! Learn more

10-Day Weather Forecast

Advertisements
Track Severe Weather on mobile